Time;durP1;ratioP1;P1;durP2;ratioP2;P2;SDS_P1;SDS_P2;PMS_P1;PMS_P2;Temp;Humidity;BMP_temperature;BMP_pressure;BME280_temperature;BME280_humidity;BME280_pressure;Samples;Min_cycle;Max_cycle;Signal;HPM_P1;HPM_P2
2022/07/19 00:03:08;;;;;;;5.68;2.40;;;;;;;;;;10403385;28;20017;-57
2022/07/19 00:08:10;;;;;;;3.45;2.13;;;;;;;;;;10406425;28;20026;-55
2022/07/19 00:13:10;;;;;;;5.30;2.38;;;;;;;;;;10403610;28;20432;-56
2022/07/19 00:18:11;;;;;;;3.55;2.53;;;;;;;;;;10407072;28;20029;-57
2022/07/19 00:23:12;;;;;;;2.88;2.30;;;;;;;;;;10402625;28;20033;-57
2022/07/19 00:28:12;;;;;;;2.40;2.20;;;;;;;;;;10387892;28;20265;-54
2022/07/19 00:33:13;;;;;;;6.43;2.42;;;;;;;;;;10403758;28;20033;-57
2022/07/19 00:38:14;;;;;;;5.68;2.30;;;;;;;;;;10420298;28;20025;-58
2022/07/19 00:43:15;;;;;;;5.07;2.53;;;;;;;;;;10404715;28;20040;-57
2022/07/19 00:48:16;;;;;;;2.92;2.58;;;;;;;;;;10434693;28;20024;-58
2022/07/19 00:53:18;;;;;;;4.13;2.30;;;;;;;;;;10436813;28;20021;-58
2022/07/19 00:58:19;;;;;;;4.97;2.45;;;;;;;;;;10418780;28;20112;-57
2022/07/19 01:03:20;;;;;;;4.10;2.45;;;;;;;;;;10381613;28;20030;-55
2022/07/19 01:08:21;;;;;;;4.25;2.47;;;;;;;;;;10402542;28;20034;-57
2022/07/19 01:13:22;;;;;;;3.03;2.20;;;;;;;;;;10412907;28;20046;-54
2022/07/19 01:18:23;;;;;;;3.03;2.33;;;;;;;;;;10422280;28;20029;-53
2022/07/19 01:23:24;;;;;;;4.53;2.10;;;;;;;;;;10401618;28;20123;-51
2022/07/19 01:28:24;;;;;;;4.80;2.50;;;;;;;;;;10427506;28;20101;-50
2022/07/19 01:33:25;;;;;;;5.60;2.50;;;;;;;;;;10405350;28;20486;-52
2022/07/19 01:38:25;;;;;;;4.45;2.33;;;;;;;;;;10416582;28;20095;-55
2022/07/19 01:43:26;;;;;;;3.38;2.38;;;;;;;;;;10420452;28;20037;-54
2022/07/19 01:48:27;;;;;;;3.05;2.08;;;;;;;;;;10411751;28;20020;-51
2022/07/19 01:53:27;;;;;;;2.80;2.03;;;;;;;;;;10424237;28;20036;-54
2022/07/19 01:58:28;;;;;;;3.20;2.13;;;;;;;;;;10441265;28;20106;-53
2022/07/19 02:03:28;;;;;;;3.08;2.00;;;;;;;;;;10443400;28;20040;-53
2022/07/19 02:08:29;;;;;;;4.00;2.00;;;;;;;;;;10447846;28;20473;-54
2022/07/19 02:13:29;;;;;;;3.25;1.98;;;;;;;;;;10427107;28;20033;-55
2022/07/19 02:18:31;;;;;;;4.25;2.25;;;;;;;;;;10423305;28;20534;-54
2022/07/19 02:23:32;;;;;;;4.57;2.60;;;;;;;;;;10403877;28;20656;-56
2022/07/19 02:28:32;;;;;;;2.67;1.88;;;;;;;;;;10426182;28;20030;-54
2022/07/19 02:33:33;;;;;;;4.43;1.98;;;;;;;;;;10423239;28;20038;-56
2022/07/19 02:38:34;;;;;;;3.28;2.05;;;;;;;;;;10423630;28;20038;-53
2022/07/19 02:43:34;;;;;;;2.60;2.20;;;;;;;;;;10393942;28;20025;-53
2022/07/19 02:48:35;;;;;;;4.43;2.10;;;;;;;;;;10411645;28;20441;-57
2022/07/19 02:53:36;;;;;;;3.83;2.20;;;;;;;;;;10416149;28;20103;-57
2022/07/19 02:58:36;;;;;;;2.38;2.17;;;;;;;;;;10417588;28;20030;-56
2022/07/19 03:03:50;;;;;;;2.25;2.03;;;;;;;;;;10423988;28;20029;-55
2022/07/19 03:08:50;;;;;;;4.13;2.08;;;;;;;;;;10422596;28;20051;-56
2022/07/19 03:13:51;;;;;;;3.10;2.10;;;;;;;;;;10411913;28;20063;-57
2022/07/19 03:18:51;;;;;;;2.65;1.90;;;;;;;;;;10431061;28;20389;-56
2022/07/19 03:23:52;;;;;;;3.67;2.10;;;;;;;;;;10408991;28;20123;-57
2022/07/19 03:28:53;;;;;;;2.13;1.83;;;;;;;;;;10414386;28;20029;-55
2022/07/19 03:33:53;;;;;;;2.22;1.80;;;;;;;;;;10410762;28;20034;-57
2022/07/19 03:38:54;;;;;;;2.92;1.92;;;;;;;;;;10414928;28;20029;-55
2022/07/19 03:43:54;;;;;;;3.60;2.35;;;;;;;;;;10409619;28;20319;-56
2022/07/19 03:48:56;;;;;;;3.05;2.22;;;;;;;;;;10415611;28;20037;-49
2022/07/19 03:53:57;;;;;;;2.92;2.13;;;;;;;;;;10416454;28;20096;-54
2022/07/19 03:58:58;;;;;;;4.40;2.17;;;;;;;;;;10411013;28;20026;-53
2022/07/19 04:03:58;;;;;;;2.33;1.70;;;;;;;;;;10407948;28;20033;-55
2022/07/19 04:08:59;;;;;;;3.72;2.05;;;;;;;;;;10415590;28;20053;-56
2022/07/19 04:14:00;;;;;;;2.40;2.17;;;;;;;;;;10406641;28;20028;-52
2022/07/19 04:19:00;;;;;;;2.20;2.00;;;;;;;;;;10413633;28;20028;-55
2022/07/19 04:24:01;;;;;;;2.38;2.17;;;;;;;;;;10416440;28;20485;-55
2022/07/19 04:29:01;;;;;;;3.45;2.03;;;;;;;;;;10407358;28;20105;-57
2022/07/19 04:34:02;;;;;;;2.58;1.88;;;;;;;;;;10403083;28;20057;-57
2022/07/19 04:39:03;;;;;;;3.42;1.80;;;;;;;;;;10416890;28;20022;-53
2022/07/19 04:44:04;;;;;;;3.30;1.95;;;;;;;;;;10406830;28;20489;-55
2022/07/19 04:49:05;;;;;;;2.17;1.98;;;;;;;;;;10408189;28;20046;-56
2022/07/19 04:54:05;;;;;;;5.82;2.00;;;;;;;;;;10423226;28;20033;-54
2022/07/19 04:59:06;;;;;;;2.67;2.08;;;;;;;;;;10405702;28;20119;-54
2022/07/19 05:04:07;;;;;;;3.92;1.83;;;;;;;;;;10415820;28;20109;-55
2022/07/19 05:09:07;;;;;;;4.60;2.25;;;;;;;;;;10414166;28;20018;-56
2022/07/19 05:14:09;;;;;;;3.97;1.75;;;;;;;;;;10408598;28;20030;-56
2022/07/19 05:19:10;;;;;;;5.22;2.08;;;;;;;;;;10410946;28;20021;-56
2022/07/19 05:24:10;;;;;;;3.10;1.85;;;;;;;;;;10439042;22;20562;-50
2022/07/19 05:29:11;;;;;;;19.83;2.90;;;;;;;;;;10453861;28;20029;-60
2022/07/19 05:34:12;;;;;;;5.93;3.13;;;;;;;;;;10446647;28;20021;-58
2022/07/19 05:39:13;;;;;;;4.50;2.65;;;;;;;;;;10449549;28;20045;-60
2022/07/19 05:44:13;;;;;;;5.43;3.00;;;;;;;;;;10445030;28;20037;-60
2022/07/19 05:49:14;;;;;;;7.00;3.10;;;;;;;;;;10448329;28;20028;-60
2022/07/19 05:54:17;;;;;;;7.43;3.03;;;;;;;;;;10442352;28;20112;-49
2022/07/19 05:59:20;;;;;;;7.43;3.17;;;;;;;;;;10435128;28;20381;-49
2022/07/19 06:04:21;;;;;;;12.85;3.33;;;;;;;;;;10449187;28;20029;-57
2022/07/19 06:09:21;;;;;;;17.92;3.88;;;;;;;;;;10448963;28;20021;-50
2022/07/19 06:14:22;;;;;;;15.48;3.83;;;;;;;;;;10447149;28;20303;-51
2022/07/19 06:19:23;;;;;;;16.35;4.00;;;;;;;;;;10433672;28;20031;-53
2022/07/19 06:24:24;;;;;;;12.73;3.55;;;;;;;;;;10423659;28;20493;-50
2022/07/19 06:29:24;;;;;;;8.85;3.75;;;;;;;;;;10421105;28;20447;-48
2022/07/19 06:34:25;;;;;;;17.38;3.80;;;;;;;;;;10418041;28;20029;-54
2022/07/19 06:39:25;;;;;;;18.13;3.88;;;;;;;;;;10425872;28;20033;-52
2022/07/19 06:44:26;;;;;;;12.10;3.40;;;;;;;;;;10423230;28;20121;-51
2022/07/19 06:49:27;;;;;;;10.50;3.38;;;;;;;;;;10418665;28;20024;-54
2022/07/19 06:54:28;;;;;;;9.75;3.50;;;;;;;;;;10416302;28;20037;-49
2022/07/19 06:59:29;;;;;;;8.40;3.13;;;;;;;;;;10423054;28;20053;-57
2022/07/19 07:04:30;;;;;;;15.07;3.03;;;;;;;;;;10420123;28;20104;-54
2022/07/19 07:09:31;;;;;;;13.25;3.08;;;;;;;;;;10426978;28;20079;-56
2022/07/19 07:14:31;;;;;;;13.02;3.42;;;;;;;;;;10444234;28;20508;-56
2022/07/19 07:19:32;;;;;;;14.95;2.95;;;;;;;;;;10447818;28;20029;-51
2022/07/19 07:24:32;;;;;;;16.60;2.78;;;;;;;;;;10440218;28;20124;-49
2022/07/19 07:29:33;;;;;;;18.92;3.03;;;;;;;;;;10447608;28;20028;-53
2022/07/19 07:34:34;;;;;;;9.07;3.15;;;;;;;;;;10433417;28;20037;-53
2022/07/19 07:39:35;;;;;;;8.88;2.65;;;;;;;;;;10438268;28;20029;-53
2022/07/19 07:44:36;;;;;;;13.10;2.90;;;;;;;;;;10448440;28;20036;-50
2022/07/19 07:49:38;;;;;;;10.48;3.00;;;;;;;;;;10448285;28;20017;-53
2022/07/19 07:54:39;;;;;;;22.27;3.22;;;;;;;;;;10435794;28;20041;-51
2022/07/19 07:59:40;;;;;;;10.10;3.28;;;;;;;;;;10424985;28;20100;-54
2022/07/19 08:04:40;;;;;;;20.77;2.95;;;;;;;;;;10432756;28;20033;-54
2022/07/19 08:09:41;;;;;;;13.80;3.08;;;;;;;;;;10445807;28;20024;-54
2022/07/19 08:14:42;;;;;;;33.97;3.88;;;;;;;;;;10446156;28;20029;-52
2022/07/19 08:19:42;;;;;;;22.13;4.38;;;;;;;;;;10446769;28;20120;-56
2022/07/19 08:24:43;;;;;;;18.08;3.00;;;;;;;;;;10447324;28;20040;-54
2022/07/19 08:29:44;;;;;;;16.35;3.13;;;;;;;;;;10417281;28;20061;-52
2022/07/19 08:34:44;;;;;;;30.35;4.38;;;;;;;;;;10413805;28;20577;-58
2022/07/19 08:39:45;;;;;;;14.05;3.85;;;;;;;;;;10423787;28;20083;-57
2022/07/19 08:44:50;;;;;;;16.08;3.53;;;;;;;;;;10433025;28;20539;-54
2022/07/19 08:49:50;;;;;;;14.63;3.17;;;;;;;;;;10428366;28;20035;-51
2022/07/19 08:54:51;;;;;;;11.80;2.63;;;;;;;;;;10428213;28;20488;-47
2022/07/19 08:59:52;;;;;;;25.02;3.90;;;;;;;;;;10437774;28;20418;-47
2022/07/19 09:05:07;;;;;;;23.60;3.83;;;;;;;;;;10445371;28;20036;-53
2022/07/19 09:10:22;;;;;;;15.13;3.22;;;;;;;;;;10445713;28;20061;-53
2022/07/19 09:15:53;;;;;;;17.02;3.28;;;;;;;;;;10445516;28;20025;-55
2022/07/19 09:21:04;;;;;;;18.98;3.53;;;;;;;;;;10440415;28;20037;-47
2022/07/19 09:26:05;;;;;;;12.20;3.08;;;;;;;;;;10434952;28;20132;-53
2022/07/19 09:31:07;;;;;;;12.65;3.47;;;;;;;;;;10438791;28;20025;-54
2022/07/19 09:36:13;;;;;;;16.67;3.25;;;;;;;;;;10443558;28;20068;-54
2022/07/19 09:41:16;;;;;;;11.75;3.40;;;;;;;;;;10430468;28;20441;-51
2022/07/19 09:46:37;;;;;;;13.13;2.85;;;;;;;;;;10414120;28;20022;-54
2022/07/19 09:51:49;;;;;;;35.58;4.80;;;;;;;;;;10426527;28;20036;-50
2022/07/19 09:56:52;;;;;;;34.35;4.07;;;;;;;;;;10452091;28;20029;-54
2022/07/19 10:01:55;;;;;;;20.05;4.32;;;;;;;;;;10443117;28;20043;-54
2022/07/19 10:06:55;;;;;;;16.50;3.10;;;;;;;;;;10422389;28;20034;-56
2022/07/19 10:11:56;;;;;;;10.52;2.63;;;;;;;;;;10421897;28;20037;-56
2022/07/19 10:17:05;;;;;;;10.85;2.58;;;;;;;;;;10421363;28;20030;-55
2022/07/19 10:22:18;;;;;;;10.55;2.72;;;;;;;;;;10412510;28;20029;-56
2022/07/19 10:27:25;;;;;;;11.32;2.40;;;;;;;;;;10403283;28;20049;-56
2022/07/19 10:32:32;;;;;;;7.93;2.60;;;;;;;;;;10419633;28;20035;-55
2022/07/19 10:37:47;;;;;;;9.80;2.73;;;;;;;;;;10416682;28;20030;-56
2022/07/19 10:43:08;;;;;;;3.72;2.25;;;;;;;;;;10417678;28;20061;-54
2022/07/19 10:48:13;;;;;;;15.63;2.83;;;;;;;;;;10422852;28;20075;-55
2022/07/19 10:53:38;;;;;;;13.20;2.90;;;;;;;;;;10427191;28;20048;-54
2022/07/19 10:59:05;;;;;;;10.70;2.33;;;;;;;;;;10442877;28;20040;-52
2022/07/19 11:04:34;;;;;;;5.10;2.70;;;;;;;;;;10441669;28;20033;-56
2022/07/19 11:09:55;;;;;;;6.07;2.90;;;;;;;;;;10450349;28;20025;-53
2022/07/19 11:14:58;;;;;;;5.32;2.67;;;;;;;;;;10446707;28;20111;-55
2022/07/19 11:20:04;;;;;;;4.47;2.53;;;;;;;;;;10450154;28;20259;-53
2022/07/19 11:25:07;;;;;;;6.78;2.55;;;;;;;;;;10448249;28;20094;-55
2022/07/19 11:30:09;;;;;;;11.30;2.63;;;;;;;;;;10449645;28;20059;-54
2022/07/19 11:35:14;;;;;;;5.68;2.92;;;;;;;;;;10448260;28;20036;-53
2022/07/19 11:40:15;;;;;;;17.15;2.88;;;;;;;;;;10448576;28;20464;-51
2022/07/19 11:45:25;;;;;;;7.72;2.35;;;;;;;;;;10448989;28;20029;-50
2022/07/19 11:50:27;;;;;;;9.23;2.20;;;;;;;;;;10446838;28;20099;-51
2022/07/19 11:55:38;;;;;;;8.35;2.20;;;;;;;;;;10449471;28;20021;-52
2022/07/19 12:00:43;;;;;;;12.07;2.40;;;;;;;;;;10443523;28;20045;-55
2022/07/19 12:06:03;;;;;;;6.68;2.60;;;;;;;;;;10427326;28;20025;-55
2022/07/19 12:11:18;;;;;;;7.18;2.53;;;;;;;;;;10447010;28;20029;-48
2022/07/19 12:16:19;;;;;;;6.50;2.38;;;;;;;;;;10448913;28;20029;-51
2022/07/19 12:21:26;;;;;;;8.52;2.50;;;;;;;;;;10444859;28;20067;-50
2022/07/19 12:26:26;;;;;;;7.00;2.35;;;;;;;;;;10447328;28;20200;-52
2022/07/19 12:31:27;;;;;;;5.90;2.30;;;;;;;;;;10447448;28;20530;-52
2022/07/19 12:36:37;;;;;;;4.32;2.20;;;;;;;;;;10431533;28;20017;-52
2022/07/19 12:41:38;;;;;;;3.00;2.03;;;;;;;;;;10444628;28;20029;-51
2022/07/19 12:46:38;;;;;;;4.43;2.35;;;;;;;;;;10427113;28;20444;-53
2022/07/19 12:51:43;;;;;;;4.03;2.30;;;;;;;;;;10413035;28;20039;-55
2022/07/19 12:56:44;;;;;;;3.13;2.22;;;;;;;;;;10413942;28;20492;-48
2022/07/19 13:01:44;;;;;;;11.75;2.15;;;;;;;;;;10414959;28;20025;-49
2022/07/19 13:06:45;;;;;;;6.18;2.05;;;;;;;;;;10418057;28;20025;-49
2022/07/19 13:11:45;;;;;;;6.82;2.63;;;;;;;;;;10418238;28;20029;-53
2022/07/19 13:16:46;;;;;;;5.95;2.67;;;;;;;;;;10410909;28;20033;-50
2022/07/19 13:21:47;;;;;;;6.53;2.65;;;;;;;;;;10413758;28;20389;-50
2022/07/19 13:26:47;;;;;;;8.65;2.42;;;;;;;;;;10424672;28;20054;-55
2022/07/19 13:31:50;;;;;;;9.15;2.75;;;;;;;;;;10422723;28;20033;-47
2022/07/19 13:36:50;;;;;;;4.97;2.35;;;;;;;;;;10428423;28;20348;-55
2022/07/19 13:41:51;;;;;;;6.15;2.75;;;;;;;;;;10450461;28;20339;-52
2022/07/19 13:46:52;;;;;;;8.05;2.40;;;;;;;;;;10451659;28;20083;-48
2022/07/19 13:51:53;;;;;;;10.23;3.08;;;;;;;;;;10450990;28;20443;-49
2022/07/19 13:56:54;;;;;;;5.60;2.22;;;;;;;;;;10449978;28;20079;-51
2022/07/19 14:01:54;;;;;;;5.30;2.22;;;;;;;;;;10450180;28;20484;-52
2022/07/19 14:06:55;;;;;;;4.88;2.33;;;;;;;;;;10420499;28;20480;-55
2022/07/19 14:11:56;;;;;;;3.95;2.58;;;;;;;;;;10424638;28;20056;-55
2022/07/19 14:16:56;;;;;;;11.30;2.67;;;;;;;;;;10447344;28;20396;-50
2022/07/19 14:21:57;;;;;;;5.47;2.05;;;;;;;;;;10450513;28;20021;-48
2022/07/19 14:26:58;;;;;;;2.72;1.95;;;;;;;;;;10409974;28;20045;-50
2022/07/19 14:31:59;;;;;;;4.65;2.10;;;;;;;;;;10402956;28;20060;-48
2022/07/19 14:36:59;;;;;;;7.15;2.25;;;;;;;;;;10382613;28;20032;-50
2022/07/19 14:42:00;;;;;;;2.65;2.13;;;;;;;;;;10388931;28;20028;-51
2022/07/19 14:47:01;;;;;;;6.97;2.22;;;;;;;;;;10397992;28;20033;-56
2022/07/19 14:52:02;;;;;;;4.57;2.00;;;;;;;;;;10408605;28;20025;-49
2022/07/19 14:57:03;;;;;;;5.63;2.15;;;;;;;;;;10386486;28;20030;-51
2022/07/19 15:02:04;;;;;;;2.50;2.05;;;;;;;;;;10381672;28;20466;-53
2022/07/19 15:07:05;;;;;;;3.10;2.13;;;;;;;;;;10383119;28;20026;-49
2022/07/19 15:12:05;;;;;;;5.05;1.58;;;;;;;;;;10393540;28;20496;-50
2022/07/19 15:17:06;;;;;;;4.20;1.80;;;;;;;;;;10398087;28;20021;-56
2022/07/19 15:22:07;;;;;;;2.35;2.00;;;;;;;;;;10384749;28;20485;-55
2022/07/19 15:27:07;;;;;;;2.83;1.90;;;;;;;;;;10409177;28;20051;-56
2022/07/19 15:32:10;;;;;;;4.25;2.00;;;;;;;;;;10422127;28;20107;-54
2022/07/19 15:37:11;;;;;;;5.55;2.15;;;;;;;;;;10412479;28;20028;-48
2022/07/19 15:42:12;;;;;;;5.45;2.25;;;;;;;;;;10446663;28;20029;-50
2022/07/19 15:47:12;;;;;;;3.55;2.20;;;;;;;;;;10443547;28;20032;-50
2022/07/19 15:52:13;;;;;;;3.05;2.25;;;;;;;;;;10426496;28;20112;-50
2022/07/19 15:57:14;;;;;;;5.32;2.42;;;;;;;;;;10443950;28;20055;-49
2022/07/19 16:02:14;;;;;;;8.95;2.50;;;;;;;;;;10449442;28;20460;-47
2022/07/19 16:07:15;;;;;;;4.93;1.98;;;;;;;;;;10446973;28;20119;-53
2022/07/19 16:12:16;;;;;;;4.90;2.10;;;;;;;;;;10421816;28;20473;-51
2022/07/19 16:17:16;;;;;;;3.03;2.20;;;;;;;;;;10434692;28;21044;-49
2022/07/19 16:22:19;;;;;;;8.13;2.60;;;;;;;;;;10430794;28;20037;-51
2022/07/19 16:27:20;;;;;;;14.70;2.53;;;;;;;;;;10432079;28;20044;-52
2022/07/19 16:32:20;;;;;;;9.73;2.05;;;;;;;;;;10418677;28;20065;-47
2022/07/19 16:37:21;;;;;;;7.43;2.10;;;;;;;;;;10425321;28;20452;-49
2022/07/19 16:42:23;;;;;;;5.93;2.28;;;;;;;;;;10419928;28;20112;-54
2022/07/19 16:47:23;;;;;;;7.68;2.08;;;;;;;;;;10424113;28;20029;-60
2022/07/19 16:52:24;;;;;;;5.25;2.28;;;;;;;;;;10427930;28;20025;-59
2022/07/19 16:57:25;;;;;;;5.22;2.03;;;;;;;;;;10431995;28;20033;-50
2022/07/19 17:02:25;;;;;;;8.73;2.05;;;;;;;;;;10419332;28;20041;-54
2022/07/19 17:07:26;;;;;;;5.97;2.35;;;;;;;;;;10434006;28;20121;-57
2022/07/19 17:12:26;;;;;;;3.38;1.98;;;;;;;;;;10438355;28;20021;-59
2022/07/19 17:17:27;;;;;;;3.42;1.80;;;;;;;;;;10433372;28;20055;-53
2022/07/19 17:22:28;;;;;;;2.85;1.70;;;;;;;;;;10436889;28;20406;-61
2022/07/19 17:27:28;;;;;;;3.35;2.05;;;;;;;;;;10427982;28;20261;-59
2022/07/19 17:32:29;;;;;;;2.70;1.90;;;;;;;;;;10440149;28;20040;-59
2022/07/19 17:37:30;;;;;;;8.07;2.20;;;;;;;;;;10440957;28;20078;-57
2022/07/19 17:42:30;;;;;;;22.63;3.75;;;;;;;;;;10429326;28;20027;-48
2022/07/19 17:47:31;;;;;;;9.77;3.00;;;;;;;;;;10441927;28;20024;-58
2022/07/19 17:52:31;;;;;;;10.65;2.70;;;;;;;;;;10446226;28;20500;-51
2022/07/19 17:57:33;;;;;;;7.95;2.67;;;;;;;;;;10431532;28;20029;-52
2022/07/19 18:02:33;;;;;;;5.68;2.15;;;;;;;;;;10435668;28;20032;-47
2022/07/19 18:07:35;;;;;;;11.77;3.08;;;;;;;;;;10447091;28;20041;-47
2022/07/19 18:12:35;;;;;;;9.30;2.45;;;;;;;;;;10445731;28;20041;-48
2022/07/19 18:17:36;;;;;;;6.75;2.17;;;;;;;;;;10441520;28;20033;-49
2022/07/19 18:22:37;;;;;;;4.70;2.03;;;;;;;;;;10443917;28;20043;-48
2022/07/19 18:27:38;;;;;;;4.68;2.20;;;;;;;;;;10443549;28;20049;-47
2022/07/19 18:32:38;;;;;;;9.05;2.47;;;;;;;;;;10445995;28;20090;-48
2022/07/19 18:37:39;;;;;;;9.05;2.50;;;;;;;;;;10448269;28;20431;-50
2022/07/19 18:42:41;;;;;;;5.32;2.47;;;;;;;;;;10439295;28;20051;-51
2022/07/19 18:47:41;;;;;;;4.00;1.85;;;;;;;;;;10436597;28;20029;-56
2022/07/19 18:52:42;;;;;;;7.15;2.22;;;;;;;;;;10431915;28;20059;-54
2022/07/19 18:57:43;;;;;;;5.22;1.70;;;;;;;;;;10446776;28;20111;-56
2022/07/19 19:02:47;;;;;;;6.70;2.10;;;;;;;;;;10447195;28;20025;-54
2022/07/19 19:07:48;;;;;;;5.72;2.25;;;;;;;;;;10445821;28;20091;-50
2022/07/19 19:12:49;;;;;;;6.22;2.33;;;;;;;;;;10449550;28;20087;-53
2022/07/19 19:17:49;;;;;;;9.40;2.20;;;;;;;;;;10447511;28;20029;-48
2022/07/19 19:22:50;;;;;;;8.02;2.10;;;;;;;;;;10430043;28;20029;-59
2022/07/19 19:27:51;;;;;;;5.93;1.92;;;;;;;;;;10430520;28;20076;-55
2022/07/19 19:32:51;;;;;;;9.68;2.03;;;;;;;;;;10428164;28;20104;-51
2022/07/19 19:37:52;;;;;;;5.80;1.90;;;;;;;;;;10419888;28;20025;-58
2022/07/19 19:42:53;;;;;;;5.03;1.85;;;;;;;;;;10433844;28;20037;-58
2022/07/19 19:47:53;;;;;;;8.02;2.15;;;;;;;;;;10426152;28;20056;-56
2022/07/19 19:52:54;;;;;;;5.57;2.45;;;;;;;;;;10434750;28;20608;-57
2022/07/19 19:57:54;;;;;;;4.55;1.95;;;;;;;;;;10439916;28;20416;-49
2022/07/19 20:02:55;;;;;;;6.00;2.17;;;;;;;;;;10438581;28;20379;-58
2022/07/19 20:07:56;;;;;;;6.57;1.90;;;;;;;;;;10438054;28;20043;-54
2022/07/19 20:12:56;;;;;;;4.93;2.00;;;;;;;;;;10437834;28;20041;-52
2022/07/19 20:17:57;;;;;;;4.28;1.70;;;;;;;;;;10443184;28;20079;-58
2022/07/19 20:22:58;;;;;;;4.90;1.85;;;;;;;;;;10435594;28;20060;-57
2022/07/19 20:27:58;;;;;;;2.90;1.25;;;;;;;;;;10442742;28;20039;-55
2022/07/19 20:32:59;;;;;;;4.25;1.92;;;;;;;;;;10435393;28;20028;-58
2022/07/19 20:37:59;;;;;;;3.05;1.40;;;;;;;;;;10441012;28;20584;-52
2022/07/19 20:43:00;;;;;;;3.10;1.70;;;;;;;;;;10422524;28;20037;-58
2022/07/19 20:48:02;;;;;;;3.45;1.70;;;;;;;;;;10419827;28;20029;-57
2022/07/19 20:53:04;;;;;;;9.68;2.22;;;;;;;;;;10425027;28;20029;-48
2022/07/19 20:58:04;;;;;;;2.78;1.70;;;;;;;;;;10435083;28;20112;-50
2022/07/19 21:03:05;;;;;;;4.97;1.58;;;;;;;;;;10446175;28;20353;-52
2022/07/19 21:08:06;;;;;;;4.68;1.75;;;;;;;;;;10437754;28;20029;-57
2022/07/19 21:13:07;;;;;;;5.38;1.65;;;;;;;;;;10438686;28;20029;-58
2022/07/19 21:18:08;;;;;;;3.50;2.03;;;;;;;;;;10443972;28;20458;-58
2022/07/19 21:23:08;;;;;;;4.53;1.83;;;;;;;;;;10432694;28;20083;-49
2022/07/19 21:28:09;;;;;;;4.50;1.98;;;;;;;;;;10426529;28;20073;-51
2022/07/19 21:33:10;;;;;;;3.72;1.75;;;;;;;;;;10422229;28;20036;-50
2022/07/19 21:38:10;;;;;;;3.08;1.50;;;;;;;;;;10431004;28;20468;-48
2022/07/19 21:43:11;;;;;;;8.32;2.22;;;;;;;;;;10435919;28;20020;-55
2022/07/19 21:48:12;;;;;;;8.48;1.75;;;;;;;;;;10443702;28;20025;-51
2022/07/19 21:53:13;;;;;;;2.33;1.50;;;;;;;;;;10445084;28;20040;-49
2022/07/19 21:58:14;;;;;;;4.90;1.77;;;;;;;;;;10437750;28;20032;-49
2022/07/19 22:03:14;;;;;;;7.05;2.00;;;;;;;;;;10437649;28;20032;-48
2022/07/19 22:08:15;;;;;;;4.68;1.80;;;;;;;;;;10449114;28;20120;-49
2022/07/19 22:13:15;;;;;;;17.98;1.90;;;;;;;;;;10450827;28;20377;-56
2022/07/19 22:18:17;;;;;;;11.85;1.65;;;;;;;;;;10453225;28;20353;-56
2022/07/19 22:23:18;;;;;;;7.40;2.08;;;;;;;;;;10452223;28;20029;-51
2022/07/19 22:28:18;;;;;;;3.08;1.63;;;;;;;;;;10451486;28;20055;-49
2022/07/19 22:33:19;;;;;;;3.50;1.90;;;;;;;;;;10450881;28;20033;-55
2022/07/19 22:38:20;;;;;;;2.92;1.77;;;;;;;;;;10442430;28;20127;-52
2022/07/19 22:43:20;;;;;;;8.30;1.60;;;;;;;;;;10449065;28;20061;-55
2022/07/19 22:48:21;;;;;;;2.88;1.73;;;;;;;;;;10451541;28;20028;-58
2022/07/19 22:53:22;;;;;;;4.78;1.88;;;;;;;;;;10444598;28;20037;-50
2022/07/19 22:58:23;;;;;;;3.97;1.60;;;;;;;;;;10449265;28;20017;-50
2022/07/19 23:03:23;;;;;;;2.85;1.48;;;;;;;;;;10451016;28;20104;-50
2022/07/19 23:08:25;;;;;;;7.00;1.80;;;;;;;;;;10441578;28;20477;-53
2022/07/19 23:13:26;;;;;;;2.30;1.48;;;;;;;;;;10450189;28;20194;-59
2022/07/19 23:18:27;;;;;;;2.92;1.52;;;;;;;;;;10450735;28;20068;-58
2022/07/19 23:23:27;;;;;;;4.88;1.73;;;;;;;;;;10441636;28;20032;-58
2022/07/19 23:28:28;;;;;;;3.63;1.75;;;;;;;;;;10448173;28;20017;-52
2022/07/19 23:33:29;;;;;;;2.35;1.40;;;;;;;;;;10432732;28;20053;-52
2022/07/19 23:38:29;;;;;;;3.78;1.60;;;;;;;;;;10442806;28;20071;-53
2022/07/19 23:43:30;;;;;;;3.30;1.58;;;;;;;;;;10449376;28;20055;-52
2022/07/19 23:48:30;;;;;;;5.35;1.60;;;;;;;;;;10444203;28;20024;-53
2022/07/19 23:53:32;;;;;;;3.40;1.60;;;;;;;;;;10448804;28;20029;-54
2022/07/19 23:58:32;;;;;;;4.60;1.67;;;;;;;;;;10449012;28;20033;-57
